Home > Products > Valid Products > TAF

000
FTUS43 KTOP 250600 AAA
TAFTOP
TAF AMD
KTOP 250610Z 2506/2606 20003KT P6SM SKC
      TEMPO 2506/2510 1SM BR
     FM251500 22012G18KT P6SM SKC
     FM260100 17009KT P6SM SKC=



000
FTUS43 KTOP 250500
TAFTOP
TAF
KTOP 250520Z 2506/2606 20003KT P6SM SKC
      TEMPO 2506/2509 4SM BR
     FM251500 22012G18KT P6SM SKC
     FM260100 17009KT P6SM SKC=



000
FTUS43 KTOP 242300
TAFTOP
TAF
KTOP 242320Z 2500/2524 33010KT P6SM SCT110 BKN200
     FM250100 28004KT P6SM SKC
     FM251500 22012G18KT P6SM SKC=



000
FTUS43 KTOP 241700
TAFTOP
TAF
KTOP 241724Z 2418/2518 33012G20KT P6SM BKN080
     FM250100 28004KT P6SM SKC
     FM251500 22012G18KT P6SM SKC=



000
FTUS43 KTOP 241500 AAB
TAFTOP
TAF AMD
KTOP 241504Z 2415/2512 23010KT P6SM VCSH SCT010 OVC030
     FM241600 33012G20KT 3SM TS FEW010 BKN025CB
     FM242000 34014G23KT P6SM FEW040 BKN100
     FM250100 28004KT P6SM SKC=



000
FTUS43 KTOP 241400 AAA
TAFTOP
TAF AMD
KTOP 241410Z 2414/2512 23010KT P6SM SCT010 OVC030
     FM241700 33012G20KT P6SM VCTS FEW010 BKN025CB
     FM242000 34014G23KT P6SM FEW040 BKN100
     FM250100 28004KT P6SM SKC=



000
FTUS43 KTOP 241100
TAFTOP
TAF
KTOP 241120Z 2412/2512 23010KT P6SM -SHRA VCTS SCT035 OVC050CB
      TEMPO 2412/2413 VRB15G30KT 2SM TSRA OVC025CB
     FM241700 33012G20KT P6SM VCSH FEW025 BKN040
     FM242000 34014G23KT P6SM FEW040 BKN100
     FM250100 28004KT P6SM SKC=



000
FTUS43 KTOP 241000 AAC
TAFTOP
TAF AMD
KTOP 241024Z 2410/2506 24010KT P6SM -SHRA VCTS SCT015 OVC035CB
      TEMPO 2410/2413 VRB15G30KT 2SM TSRA OVC025CB
     FM241700 33012G20KT P6SM VCSH SCT025 BKN035
     FM242000 34014G23KT P6SM FEW040 BKN100
     FM250100 28005KT P6SM SKC=



000
FTUS43 KTOP 240900 AAB
TAFTOP
TAF AMD
KTOP 240926Z 2409/2506 28010KT P6SM -SHRA VCTS SCT015 OVC035CB
      TEMPO 2410/2413 4SM -TSRA OVC025CB
     FM241700 33012G20KT P6SM VCSH SCT025 BKN035
     FM242000 34014G23KT P6SM FEW040 BKN100
     FM250100 28005KT P6SM SKC=



000
FTUS43 KTOP 240700 AAA
TAFTOP
TAF AMD
KTOP 240758Z 2408/2506 16015KT P6SM BKN150
     FM240830 29012KT P6SM SCT020 OVC100
     FM240900 33012KT P6SM -SHRA VCTS SCT015 OVC035CB
      TEMPO 2410/2413 4SM -TSRA OVC025CB
     FM241700 33012G20KT P6SM VCSH SCT025 BKN035
     FM242000 34014G23KT P6SM FEW040 BKN100
     FM250100 28005KT P6SM SKC=



000
FTUS43 KTOP 240500
TAFTOP
TAF
KTOP 240520Z 2406/2506 16017G24KT P6SM SCT150
     FM241100 20010KT 3SM TSRA BR OVC012CB
     FM241300 22011KT 5SM SHRA BR OVC012
     FM241500 33013KT 6SM SHRA BR OVC025
     FM241800 33015G23KT P6SM BKN040
     FM250100 29009KT P6SM SKC=



000
FTUS43 KTOP 232300
TAFTOP
TAF
KTOP 232338Z 2400/2424 16018G25KT P6SM SCT150
     FM240900 20011KT 3SM TSRA BR OVC012CB
     FM241100 22010KT 4SM SHRA BR OVC012
     FM241400 33014G21KT 6SM SHRA BR OVC025
     FM241800 33016G24KT P6SM BKN050=



000
FTUS43 KTOP 231700
TAFTOP
TAF
KTOP 231720Z 2318/2418 14014G22KT P6SM VCSH OVC100
     FM232000 16020G30KT P6SM SCT150
     FM240900 20011KT 3SM TSRA OVC014CB
     FM241400 32012G20KT 6SM SHRA OVC025=



000
FTUS43 KTOP 231600 AAA
TAFTOP
TAF AMD
KTOP 231648Z 2317/2412 14014G22KT P6SM VCSH OVC100
     FM232000 16020G30KT P6SM SCT150
     FM240900 20011KT 3SM TSRA OVC014CB=



000
FTUS43 KTOP 231100
TAFTOP
TAF
KTOP 231120Z 2312/2412 14014G22KT P6SM -SHRA OVC100
     FM231900 16020G30KT P6SM SCT150
     FM240900 20011KT 3SM TSRA OVC014CB=



000
FTUS43 KTOP 230800 AAA
TAFTOP
TAF AMD
KTOP 230840Z 2309/2406 14009KT P6SM VCSH BKN100
     FM231500 15013G20KT P6SM VCSH BKN100
     FM231800 15020G30KT P6SM SCT120=



000
FTUS43 KTOP 230500
TAFTOP
TAF
KTOP 230520Z 2306/2406 12004KT P6SM SCT120
     FM231000 14009KT P6SM VCSH BKN090
     FM231500 15013G20KT P6SM SCT100
     FM231800 15020G30KT P6SM SCT120=



000
FTUS43 KTOP 222300
TAFTOP
TAF
KTOP 222328Z 2300/2324 12005KT P6SM SCT120
     FM231000 14011KT P6SM VCSH BKN100
     FM231500 15017G24KT P6SM SCT120=



000
FTUS43 KTOP 221700
TAFTOP
TAF
KTOP 221731Z 2218/2318 08008KT P6SM SKC
     FM230100 13006KT P6SM SCT120
     FM231500 15016G26KT P6SM BKN100=



000
FTUS43 KTOP 221100
TAFTOP
TAF
KTOP 221124Z 2212/2312 02004KT P6SM SKC
     FM221500 08006KT P6SM SKC
     FM222200 13009KT P6SM SCT110 BKN250=



    US Dept of Commerce
    National Oceanic and Atmospheric Administration
    National Weather Service
    1325 East West Highway
    Silver Spring, MD 20910
    Page Author: NWS Internet Services Team
Disclaimer
Information Quality
Credits
Glossary
Privacy Policy
Freedom of Information Act (FOIA)
About Us
Career Opportunities